sensor_id;sensor_type;location;lat;lon;timestamp;pressure;altitude;pressure_sealevel;temperature;humidity
72096;BME280;59968;51.084;16.748;2023-04-19T00:01:34;100825.23;;;11.65;73.41
72096;BME280;59968;51.084;16.748;2023-04-19T00:04:07;100824.27;;;11.65;73.62
72096;BME280;59968;51.084;16.748;2023-04-19T00:06:43;100823.23;;;11.62;73.61
72096;BME280;59968;51.084;16.748;2023-04-19T00:09:14;100823.42;;;11.58;73.41
72096;BME280;59968;51.084;16.748;2023-04-19T00:11:48;100819.33;;;11.56;73.05
72096;BME280;59968;51.084;16.748;2023-04-19T00:14:18;100816.88;;;11.52;72.58
72096;BME280;59968;51.084;16.748;2023-04-19T00:16:48;100814.14;;;11.47;72.28
72096;BME280;59968;51.084;16.748;2023-04-19T00:19:23;100810.60;;;11.45;72.50
72096;BME280;59968;51.084;16.748;2023-04-19T00:21:59;100810.75;;;11.43;72.62
72096;BME280;59968;51.084;16.748;2023-04-19T00:24:34;100808.54;;;11.42;72.55
72096;BME280;59968;51.084;16.748;2023-04-19T00:27:03;100804.46;;;11.40;72.45
72096;BME280;59968;51.084;16.748;2023-04-19T00:29:32;100803.00;;;11.37;72.37
72096;BME280;59968;51.084;16.748;2023-04-19T00:32:01;100803.29;;;11.35;72.32
72096;BME280;59968;51.084;16.748;2023-04-19T00:34:40;100805.73;;;11.32;72.28
72096;BME280;59968;51.084;16.748;2023-04-19T00:37:13;100799.30;;;11.29;72.38
72096;BME280;59968;51.084;16.748;2023-04-19T00:39:45;100796.33;;;11.24;71.96
72096;BME280;59968;51.084;16.748;2023-04-19T00:42:14;100794.89;;;11.19;71.92
72096;BME280;59968;51.084;16.748;2023-04-19T00:44:47;100790.14;;;11.12;71.86
72096;BME280;59968;51.084;16.748;2023-04-19T00:47:27;100787.92;;;11.07;72.08
72096;BME280;59968;51.084;16.748;2023-04-19T00:50:01;100785.59;;;11.03;71.92
72096;BME280;59968;51.084;16.748;2023-04-19T00:52:32;100782.52;;;11.03;72.22
72096;BME280;59968;51.084;16.748;2023-04-19T00:55:01;100783.31;;;10.99;72.21
72096;BME280;59968;51.084;16.748;2023-04-19T00:57:32;100781.04;;;10.96;72.42
72096;BME280;59968;51.084;16.748;2023-04-19T01:00:04;100778.55;;;10.93;72.23
72096;BME280;59968;51.084;16.748;2023-04-19T01:02:38;100778.08;;;10.88;72.40
72096;BME280;59968;51.084;16.748;2023-04-19T01:05:12;100772.14;;;10.85;72.30
72096;BME280;59968;51.084;16.748;2023-04-19T01:07:43;100765.45;;;10.84;72.53
72096;BME280;59968;51.084;16.748;2023-04-19T01:10:15;100765.60;;;10.79;72.30
72096;BME280;59968;51.084;16.748;2023-04-19T01:12:44;100761.42;;;10.75;72.09
72096;BME280;59968;51.084;16.748;2023-04-19T01:15:16;100760.44;;;10.74;71.61
72096;BME280;59968;51.084;16.748;2023-04-19T01:17:50;100755.16;;;10.73;71.11
72096;BME280;59968;51.084;16.748;2023-04-19T01:20:41;100748.63;;;10.68;71.05
72096;BME280;59968;51.084;16.748;2023-04-19T01:23:22;100748.25;;;10.70;71.06
72096;BME280;59968;51.084;16.748;2023-04-19T01:25:53;100747.29;;;10.66;71.29
72096;BME280;59968;51.084;16.748;2023-04-19T01:28:30;100744.89;;;10.57;71.44
72096;BME280;59968;51.084;16.748;2023-04-19T01:31:02;100748.45;;;10.51;71.82
72096;BME280;59968;51.084;16.748;2023-04-19T01:33:32;100745.19;;;10.46;72.09
72096;BME280;59968;51.084;16.748;2023-04-19T01:36:10;100742.58;;;10.41;72.50
72096;BME280;59968;51.084;16.748;2023-04-19T01:38:49;100741.57;;;10.38;72.75
72096;BME280;59968;51.084;16.748;2023-04-19T01:41:18;100737.23;;;10.34;72.86
72096;BME280;59968;51.084;16.748;2023-04-19T01:43:48;100736.50;;;10.30;73.18
72096;BME280;59968;51.084;16.748;2023-04-19T01:46:20;100733.09;;;10.23;73.02
72096;BME280;59968;51.084;16.748;2023-04-19T01:48:51;100734.20;;;10.21;72.80
72096;BME280;59968;51.084;16.748;2023-04-19T01:51:23;100731.18;;;10.19;72.64
72096;BME280;59968;51.084;16.748;2023-04-19T01:53:52;100727.22;;;10.18;72.77
72096;BME280;59968;51.084;16.748;2023-04-19T01:56:23;100725.66;;;10.15;72.66
72096;BME280;59968;51.084;16.748;2023-04-19T01:58:51;100730.52;;;10.13;72.84
72096;BME280;59968;51.084;16.748;2023-04-19T02:01:23;100729.84;;;10.10;72.12
72096;BME280;59968;51.084;16.748;2023-04-19T02:03:52;100732.27;;;10.07;71.11
72096;BME280;59968;51.084;16.748;2023-04-19T02:06:21;100734.55;;;10.05;68.62
72096;BME280;59968;51.084;16.748;2023-04-19T02:08:58;100730.51;;;10.01;67.02
72096;BME280;59968;51.084;16.748;2023-04-19T02:11:27;100732.63;;;9.95;65.20
72096;BME280;59968;51.084;16.748;2023-04-19T02:13:56;100724.35;;;9.88;65.33
72096;BME280;59968;51.084;16.748;2023-04-19T02:16:44;100727.01;;;9.88;65.55
72096;BME280;59968;51.084;16.748;2023-04-19T02:19:13;100730.23;;;9.87;65.53
72096;BME280;59968;51.084;16.748;2023-04-19T02:21:47;100730.05;;;9.86;65.25
72096;BME280;59968;51.084;16.748;2023-04-19T02:24:16;100724.03;;;9.84;64.91
72096;BME280;59968;51.084;16.748;2023-04-19T02:26:48;100721.48;;;9.82;64.85
72096;BME280;59968;51.084;16.748;2023-04-19T02:29:17;100721.77;;;9.79;65.23
72096;BME280;59968;51.084;16.748;2023-04-19T02:31:48;100719.06;;;9.77;65.32
72096;BME280;59968;51.084;16.748;2023-04-19T02:34:22;100710.77;;;9.71;65.32
72096;BME280;59968;51.084;16.748;2023-04-19T02:36:52;100723.27;;;9.73;65.15
72096;BME280;59968;51.084;16.748;2023-04-19T02:39:27;100717.81;;;9.71;65.30
72096;BME280;59968;51.084;16.748;2023-04-19T02:41:56;100719.95;;;9.68;65.59
72096;BME280;59968;51.084;16.748;2023-04-19T02:44:29;100718.20;;;9.66;65.87
72096;BME280;59968;51.084;16.748;2023-04-19T02:46:58;100716.08;;;9.65;65.97
72096;BME280;59968;51.084;16.748;2023-04-19T02:49:29;100712.79;;;9.63;66.02
72096;BME280;59968;51.084;16.748;2023-04-19T02:52:05;100709.96;;;9.58;66.06
72096;BME280;59968;51.084;16.748;2023-04-19T02:54:34;100709.59;;;9.53;66.13
72096;BME280;59968;51.084;16.748;2023-04-19T02:57:03;100713.20;;;9.48;66.38
72096;BME280;59968;51.084;16.748;2023-04-19T02:59:32;100710.98;;;9.42;66.88
72096;BME280;59968;51.084;16.748;2023-04-19T03:02:02;100707.55;;;9.36;67.03
72096;BME280;59968;51.084;16.748;2023-04-19T03:04:30;100700.55;;;9.31;67.09
72096;BME280;59968;51.084;16.748;2023-04-19T03:07:11;100696.00;;;9.27;65.94
72096;BME280;59968;51.084;16.748;2023-04-19T03:09:48;100694.70;;;9.27;65.06
72096;BME280;59968;51.084;16.748;2023-04-19T03:12:22;100689.77;;;9.27;64.64
72096;BME280;59968;51.084;16.748;2023-04-19T03:14:56;100687.33;;;9.27;64.19
72096;BME280;59968;51.084;16.748;2023-04-19T03:17:28;100685.20;;;9.26;64.22
72096;BME280;59968;51.084;16.748;2023-04-19T03:20:02;100683.98;;;9.25;64.13
72096;BME280;59968;51.084;16.748;2023-04-19T03:22:44;100680.84;;;9.23;64.18
72096;BME280;59968;51.084;16.748;2023-04-19T03:25:16;100678.31;;;9.23;63.23
72096;BME280;59968;51.084;16.748;2023-04-19T03:27:53;100675.52;;;9.22;63.24
72096;BME280;59968;51.084;16.748;2023-04-19T03:30:36;100666.94;;;9.17;62.47
72096;BME280;59968;51.084;16.748;2023-04-19T03:33:07;100679.77;;;9.19;61.66
72096;BME280;59968;51.084;16.748;2023-04-19T03:35:37;100676.05;;;9.14;61.00
72096;BME280;59968;51.084;16.748;2023-04-19T03:38:09;100677.02;;;9.13;61.69
72096;BME280;59968;51.084;16.748;2023-04-19T03:40:43;100666.26;;;9.07;61.74
72096;BME280;59968;51.084;16.748;2023-04-19T03:43:16;100674.03;;;9.13;61.45
72096;BME280;59968;51.084;16.748;2023-04-19T03:45:47;100669.63;;;9.11;60.92
72096;BME280;59968;51.084;16.748;2023-04-19T03:48:16;100670.52;;;9.09;59.94
72096;BME280;59968;51.084;16.748;2023-04-19T03:50:45;100667.80;;;9.07;59.80
72096;BME280;59968;51.084;16.748;2023-04-19T03:53:17;100666.02;;;9.03;60.04
72096;BME280;59968;51.084;16.748;2023-04-19T03:55:56;100667.16;;;9.01;60.18
72096;BME280;59968;51.084;16.748;2023-04-19T03:58:29;100661.52;;;8.97;59.91
72096;BME280;59968;51.084;16.748;2023-04-19T04:01:05;100664.67;;;8.95;60.47
72096;BME280;59968;51.084;16.748;2023-04-19T04:03:35;100664.50;;;8.95;60.57
72096;BME280;59968;51.084;16.748;2023-04-19T04:06:08;100668.17;;;8.93;60.30
72096;BME280;59968;51.084;16.748;2023-04-19T04:08:46;100664.55;;;8.90;60.25
72096;BME280;59968;51.084;16.748;2023-04-19T04:11:15;100667.64;;;8.89;60.86
72096;BME280;59968;51.084;16.748;2023-04-19T04:13:52;100669.39;;;8.87;59.37
72096;BME280;59968;51.084;16.748;2023-04-19T04:16:39;100665.21;;;8.81;58.08
72096;BME280;59968;51.084;16.748;2023-04-19T04:19:08;100670.13;;;8.79;59.01
72096;BME280;59968;51.084;16.748;2023-04-19T04:21:39;100670.20;;;8.78;59.79
72096;BME280;59968;51.084;16.748;2023-04-19T04:24:17;100670.13;;;8.77;59.34
72096;BME280;59968;51.084;16.748;2023-04-19T04:27:15;100675.88;;;8.73;59.22
72096;BME280;59968;51.084;16.748;2023-04-19T04:29:51;100676.91;;;8.66;58.83
72096;BME280;59968;51.084;16.748;2023-04-19T04:32:21;100680.55;;;8.59;59.86
72096;BME280;59968;51.084;16.748;2023-04-19T04:35:01;100682.23;;;8.49;61.04
72096;BME280;59968;51.084;16.748;2023-04-19T04:37:47;100680.14;;;8.36;62.40
72096;BME280;59968;51.084;16.748;2023-04-19T04:40:16;100679.34;;;8.28;63.06
72096;BME280;59968;51.084;16.748;2023-04-19T04:42:46;100678.97;;;8.20;63.97
72096;BME280;59968;51.084;16.748;2023-04-19T04:45:30;100679.89;;;8.13;63.52
72096;BME280;59968;51.084;16.748;2023-04-19T04:48:00;100680.82;;;8.06;63.39
72096;BME280;59968;51.084;16.748;2023-04-19T04:50:53;100673.67;;;8.01;63.40
72096;BME280;59968;51.084;16.748;2023-04-19T04:53:28;100672.91;;;7.92;63.72
72096;BME280;59968;51.084;16.748;2023-04-19T04:56:02;100674.91;;;7.87;63.81
72096;BME280;59968;51.084;16.748;2023-04-19T04:58:42;100655.27;;;7.75;64.36
72096;BME280;59968;51.084;16.748;2023-04-19T05:01:25;100676.52;;;7.83;64.20
72096;BME280;59968;51.084;16.748;2023-04-19T05:03:54;100676.02;;;7.82;64.59
72096;BME280;59968;51.084;16.748;2023-04-19T05:06:26;100676.83;;;7.79;64.87
72096;BME280;59968;51.084;16.748;2023-04-19T05:09:01;100678.05;;;7.74;65.09
72096;BME280;59968;51.084;16.748;2023-04-19T05:11:38;100675.92;;;7.70;65.05
72096;BME280;59968;51.084;16.748;2023-04-19T05:14:07;100678.48;;;7.70;65.29
72096;BME280;59968;51.084;16.748;2023-04-19T05:16:36;100676.02;;;7.69;65.72
72096;BME280;59968;51.084;16.748;2023-04-19T05:19:07;100672.11;;;7.70;66.01
72096;BME280;59968;51.084;16.748;2023-04-19T05:21:40;100668.69;;;7.70;66.12
72096;BME280;59968;51.084;16.748;2023-04-19T05:24:09;100671.98;;;7.66;66.24
72096;BME280;59968;51.084;16.748;2023-04-19T05:26:41;100670.90;;;7.62;66.49
72096;BME280;59968;51.084;16.748;2023-04-19T05:29:10;100669.61;;;7.58;66.73
72096;BME280;59968;51.084;16.748;2023-04-19T05:32:01;100669.61;;;7.55;67.08
72096;BME280;59968;51.084;16.748;2023-04-19T05:34:35;100669.22;;;7.52;66.92
72096;BME280;59968;51.084;16.748;2023-04-19T05:37:16;100664.91;;;7.50;66.45
72096;BME280;59968;51.084;16.748;2023-04-19T05:39:49;100659.70;;;7.48;65.41
72096;BME280;59968;51.084;16.748;2023-04-19T05:42:21;100656.89;;;7.45;64.87
72096;BME280;59968;51.084;16.748;2023-04-19T05:44:50;100655.89;;;7.41;64.16
72096;BME280;59968;51.084;16.748;2023-04-19T05:47:23;100655.05;;;7.41;64.35
72096;BME280;59968;51.084;16.748;2023-04-19T05:50:16;100650.80;;;7.42;65.26
72096;BME280;59968;51.084;16.748;2023-04-19T05:53:13;100653.66;;;7.49;65.97
72096;BME280;59968;51.084;16.748;2023-04-19T05:55:43;100650.64;;;7.54;65.62
72096;BME280;59968;51.084;16.748;2023-04-19T05:58:13;100645.63;;;7.55;65.72
72096;BME280;59968;51.084;16.748;2023-04-19T06:00:46;100641.94;;;7.58;65.24
72096;BME280;59968;51.084;16.748;2023-04-19T06:03:17;100640.19;;;7.56;65.12
72096;BME280;59968;51.084;16.748;2023-04-19T06:05:46;100637.48;;;7.62;65.68
72096;BME280;59968;51.084;16.748;2023-04-19T06:08:15;100634.52;;;7.77;64.98
72096;BME280;59968;51.084;16.748;2023-04-19T06:10:49;100633.40;;;7.92;64.19
72096;BME280;59968;51.084;16.748;2023-04-19T06:13:34;100633.77;;;8.00;63.00
72096;BME280;59968;51.084;16.748;2023-04-19T06:16:26;100635.56;;;8.07;62.15
72096;BME280;59968;51.084;16.748;2023-04-19T06:18:58;100623.02;;;8.02;61.43
72096;BME280;59968;51.084;16.748;2023-04-19T06:21:34;100633.88;;;8.08;61.64
72096;BME280;59968;51.084;16.748;2023-04-19T06:24:11;100639.20;;;8.17;61.99
72096;BME280;59968;51.084;16.748;2023-04-19T06:26:43;100645.70;;;8.25;61.62
72096;BME280;59968;51.084;16.748;2023-04-19T06:29:15;100645.45;;;8.30;61.11
72096;BME280;59968;51.084;16.748;2023-04-19T06:31:53;100650.52;;;8.36;60.85
72096;BME280;59968;51.084;16.748;2023-04-19T06:34:23;100653.05;;;8.51;61.40
72096;BME280;59968;51.084;16.748;2023-04-19T06:36:52;100655.81;;;8.65;61.06
72096;BME280;59968;51.084;16.748;2023-04-19T06:39:23;100657.92;;;8.71;60.86
72096;BME280;59968;51.084;16.748;2023-04-19T06:41:57;100653.44;;;8.69;61.30
72096;BME280;59968;51.084;16.748;2023-04-19T06:44:31;100654.14;;;8.75;59.85
72096;BME280;59968;51.084;16.748;2023-04-19T06:47:00;100650.64;;;8.80;60.92
72096;BME280;59968;51.084;16.748;2023-04-19T06:49:33;100646.90;;;8.86;60.45
72096;BME280;59968;51.084;16.748;2023-04-19T06:52:05;100645.92;;;8.91;60.19
72096;BME280;59968;51.084;16.748;2023-04-19T06:54:40;100648.77;;;9.03;59.67
72096;BME280;59968;51.084;16.748;2023-04-19T06:57:32;100643.48;;;9.07;58.90
72096;BME280;59968;51.084;16.748;2023-04-19T07:00:06;100645.30;;;9.11;59.47
72096;BME280;59968;51.084;16.748;2023-04-19T07:02:55;100640.33;;;9.20;60.38
72096;BME280;59968;51.084;16.748;2023-04-19T07:05:25;100639.14;;;9.36;60.62
72096;BME280;59968;51.084;16.748;2023-04-19T07:08:06;100636.28;;;9.52;60.36
72096;BME280;59968;51.084;16.748;2023-04-19T07:10:41;100638.02;;;9.63;60.17
72096;BME280;59968;51.084;16.748;2023-04-19T07:13:16;100633.70;;;9.70;60.33
72096;BME280;59968;51.084;16.748;2023-04-19T07:15:45;100635.45;;;9.80;59.68
72096;BME280;59968;51.084;16.748;2023-04-19T07:18:17;100640.45;;;9.88;59.39
72096;BME280;59968;51.084;16.748;2023-04-19T07:20:53;100631.48;;;9.88;59.63
72096;BME280;59968;51.084;16.748;2023-04-19T07:23:24;100632.59;;;9.98;59.73
72096;BME280;59968;51.084;16.748;2023-04-19T07:25:59;100631.13;;;9.99;58.50
72096;BME280;59968;51.084;16.748;2023-04-19T07:28:28;100634.17;;;9.87;58.04
72096;BME280;59968;51.084;16.748;2023-04-19T07:31:00;100635.02;;;9.83;58.08
72096;BME280;59968;51.084;16.748;2023-04-19T07:33:34;100632.91;;;9.80;57.76
72096;BME280;59968;51.084;16.748;2023-04-19T07:36:04;100632.89;;;9.79;58.17
72096;BME280;59968;51.084;16.748;2023-04-19T07:38:43;100635.45;;;9.77;58.51
72096;BME280;59968;51.084;16.748;2023-04-19T07:41:17;100630.25;;;9.84;58.94
72096;BME280;59968;51.084;16.748;2023-04-19T07:43:52;100634.68;;;9.99;58.98
72096;BME280;59968;51.084;16.748;2023-04-19T07:46:32;100627.65;;;9.93;57.74
72096;BME280;59968;51.084;16.748;2023-04-19T07:49:04;100630.53;;;9.78;58.43
72096;BME280;59968;51.084;16.748;2023-04-19T07:51:37;100632.61;;;9.66;58.60
72096;BME280;59968;51.084;16.748;2023-04-19T07:54:10;100632.33;;;9.54;58.61
72096;BME280;59968;51.084;16.748;2023-04-19T07:56:42;100628.88;;;9.57;59.53
72096;BME280;59968;51.084;16.748;2023-04-19T07:59:13;100628.90;;;9.56;58.18
72096;BME280;59968;51.084;16.748;2023-04-19T08:01:43;100630.39;;;9.64;58.48
72096;BME280;59968;51.084;16.748;2023-04-19T08:04:15;100629.23;;;9.67;58.60
72096;BME280;59968;51.084;16.748;2023-04-19T08:06:50;100626.23;;;9.58;59.60
72096;BME280;59968;51.084;16.748;2023-04-19T08:09:29;100635.28;;;9.55;59.51
72096;BME280;59968;51.084;16.748;2023-04-19T08:11:58;100635.25;;;9.52;59.61
72096;BME280;59968;51.084;16.748;2023-04-19T08:14:29;100640.58;;;9.49;59.00
72096;BME280;59968;51.084;16.748;2023-04-19T08:17:11;100638.92;;;9.46;59.59
72096;BME280;59968;51.084;16.748;2023-04-19T08:19:49;100630.48;;;9.35;59.30
72096;BME280;59968;51.084;16.748;2023-04-19T08:22:21;100624.47;;;9.44;60.62
72096;BME280;59968;51.084;16.748;2023-04-19T08:24:53;100613.50;;;9.73;61.58
72096;BME280;59968;51.084;16.748;2023-04-19T08:27:25;100616.55;;;10.05;61.00
72096;BME280;59968;51.084;16.748;2023-04-19T08:29:54;100623.27;;;10.21;59.47
72096;BME280;59968;51.084;16.748;2023-04-19T08:32:28;100622.42;;;10.36;60.11
72096;BME280;59968;51.084;16.748;2023-04-19T08:34:57;100630.02;;;10.45;57.94
72096;BME280;59968;51.084;16.748;2023-04-19T08:37:32;100628.20;;;10.35;58.39
72096;BME280;59968;51.084;16.748;2023-04-19T08:40:01;100626.66;;;10.17;58.06
72096;BME280;59968;51.084;16.748;2023-04-19T08:42:39;100627.37;;;10.04;57.94
72096;BME280;59968;51.084;16.748;2023-04-19T08:45:15;100632.45;;;10.07;57.33
72096;BME280;59968;51.084;16.748;2023-04-19T08:47:58;100627.89;;;10.13;58.26
72096;BME280;59968;51.084;16.748;2023-04-19T08:50:30;100630.65;;;10.24;57.56
72096;BME280;59968;51.084;16.748;2023-04-19T08:53:12;100623.40;;;10.34;56.97
72096;BME280;59968;51.084;16.748;2023-04-19T08:55:53;100622.75;;;10.39;56.59
72096;BME280;59968;51.084;16.748;2023-04-19T08:58:46;100621.56;;;10.37;56.73
72096;BME280;59968;51.084;16.748;2023-04-19T09:01:31;100621.05;;;10.23;55.84
72096;BME280;59968;51.084;16.748;2023-04-19T09:04:04;100620.98;;;10.04;56.52
72096;BME280;59968;51.084;16.748;2023-04-19T09:06:57;100620.24;;;9.88;57.24
72096;BME280;59968;51.084;16.748;2023-04-19T09:09:29;100622.88;;;9.73;57.99
72096;BME280;59968;51.084;16.748;2023-04-19T09:12:16;100623.14;;;9.57;58.62
72096;BME280;59968;51.084;16.748;2023-04-19T09:14:50;100619.02;;;9.49;59.33
72096;BME280;59968;51.084;16.748;2023-04-19T09:17:38;100626.20;;;9.41;59.22
72096;BME280;59968;51.084;16.748;2023-04-19T09:20:13;100619.05;;;9.19;59.15
72096;BME280;59968;51.084;16.748;2023-04-19T09:22:48;100624.28;;;8.94;59.70
72096;BME280;59968;51.084;16.748;2023-04-19T09:25:32;100620.52;;;8.66;61.19
72096;BME280;59968;51.084;16.748;2023-04-19T09:28:27;100620.90;;;8.39;62.21
72096;BME280;59968;51.084;16.748;2023-04-19T09:30:57;100615.54;;;8.20;62.81
72096;BME280;59968;51.084;16.748;2023-04-19T09:33:53;100612.34;;;8.10;62.91
72096;BME280;59968;51.084;16.748;2023-04-19T09:36:29;100611.61;;;8.04;63.67
72096;BME280;59968;51.084;16.748;2023-04-19T09:39:04;100612.19;;;8.04;64.18
72096;BME280;59968;51.084;16.748;2023-04-19T09:41:53;100610.92;;;7.98;64.69
72096;BME280;59968;51.084;16.748;2023-04-19T09:44:25;100613.06;;;7.94;65.49
72096;BME280;59968;51.084;16.748;2023-04-19T09:47:27;100610.73;;;7.87;65.16
72096;BME280;59968;51.084;16.748;2023-04-19T09:50:05;100612.25;;;7.84;65.86
72096;BME280;59968;51.084;16.748;2023-04-19T09:52:51;100607.78;;;7.76;65.59
72096;BME280;59968;51.084;16.748;2023-04-19T09:55:59;100612.11;;;7.74;66.36
72096;BME280;59968;51.084;16.748;2023-04-19T09:58:36;100609.54;;;7.68;66.13
72096;BME280;59968;51.084;16.748;2023-04-19T10:01:25;100610.02;;;7.60;66.36
72096;BME280;59968;51.084;16.748;2023-04-19T10:04:03;100613.77;;;7.52;66.50
72096;BME280;59968;51.084;16.748;2023-04-19T10:06:58;100617.73;;;7.44;67.13
72096;BME280;59968;51.084;16.748;2023-04-19T10:09:37;100615.48;;;7.38;67.66
72096;BME280;59968;51.084;16.748;2023-04-19T10:12:25;100611.83;;;7.37;67.91
72096;BME280;59968;51.084;16.748;2023-04-19T10:15:13;100611.41;;;7.37;67.58
72096;BME280;59968;51.084;16.748;2023-04-19T10:17:53;100607.13;;;7.41;67.42
72096;BME280;59968;51.084;16.748;2023-04-19T10:20:57;100610.44;;;7.50;67.55
72096;BME280;59968;51.084;16.748;2023-04-19T10:23:54;100607.53;;;7.58;67.93
72096;BME280;59968;51.084;16.748;2023-04-19T10:26:29;100600.91;;;7.69;67.85
72096;BME280;59968;51.084;16.748;2023-04-19T10:32:25;100602.91;;;7.94;67.28
72096;BME280;59968;51.084;16.748;2023-04-19T10:35:04;100598.23;;;7.96;66.85
72096;BME280;59968;51.084;16.748;2023-04-19T10:37:40;100600.72;;;7.98;67.12
72096;BME280;59968;51.084;16.748;2023-04-19T10:43:25;100592.92;;;8.00;66.99
72096;BME280;59968;51.084;16.748;2023-04-19T10:46:54;100594.27;;;7.98;67.02
72096;BME280;59968;51.084;16.748;2023-04-19T10:49:03;100595.30;;;8.02;68.00
72096;BME280;59968;51.084;16.748;2023-04-19T10:51:40;100602.05;;;8.11;68.38
72096;BME280;59968;51.084;16.748;2023-04-19T10:54:35;100598.73;;;8.15;67.58
72096;BME280;59968;51.084;16.748;2023-04-19T10:57:12;100595.52;;;8.16;67.65
72096;BME280;59968;51.084;16.748;2023-04-19T11:00:20;100594.29;;;8.19;67.78
72096;BME280;59968;51.084;16.748;2023-04-19T11:03:00;100589.02;;;8.23;67.83
72096;BME280;59968;51.084;16.748;2023-04-19T11:09:36;100588.19;;;8.53;67.30
72096;BME280;59968;51.084;16.748;2023-04-19T11:12:14;100585.65;;;8.59;67.20
72096;BME280;59968;51.084;16.748;2023-04-19T11:14:55;100583.81;;;8.63;67.58
72096;BME280;59968;51.084;16.748;2023-04-19T11:17:53;100584.41;;;8.67;66.98
72096;BME280;59968;51.084;16.748;2023-04-19T11:20:44;100579.02;;;8.67;66.72
72096;BME280;59968;51.084;16.748;2023-04-19T11:23:24;100577.90;;;8.73;67.51
72096;BME280;59968;51.084;16.748;2023-04-19T11:26:04;100578.77;;;8.76;67.11
72096;BME280;59968;51.084;16.748;2023-04-19T11:28:48;100577.85;;;8.74;66.61
72096;BME280;59968;51.084;16.748;2023-04-19T11:31:34;100580.22;;;8.75;67.61
72096;BME280;59968;51.084;16.748;2023-04-19T11:34:15;100580.85;;;8.83;67.86
72096;BME280;59968;51.084;16.748;2023-04-19T11:37:01;100578.80;;;8.87;67.13
72096;BME280;59968;51.084;16.748;2023-04-19T11:39:44;100580.40;;;8.84;66.77
72096;BME280;59968;51.084;16.748;2023-04-19T11:42:20;100583.33;;;8.81;67.21
72096;BME280;59968;51.084;16.748;2023-04-19T11:44:53;100584.02;;;8.78;67.02
72096;BME280;59968;51.084;16.748;2023-04-19T11:47:26;100585.98;;;8.73;66.92
72096;BME280;59968;51.084;16.748;2023-04-19T11:53:28;100584.83;;;8.60;67.40
72096;BME280;59968;51.084;16.748;2023-04-19T11:56:14;100587.07;;;8.51;67.47
72096;BME280;59968;51.084;16.748;2023-04-19T11:58:56;100586.48;;;8.42;67.48
72096;BME280;59968;51.084;16.748;2023-04-19T12:01:27;100589.98;;;8.35;67.84
72096;BME280;59968;51.084;16.748;2023-04-19T12:04:16;100590.54;;;8.25;68.58
72096;BME280;59968;51.084;16.748;2023-04-19T12:06:56;100592.85;;;8.17;69.07
72096;BME280;59968;51.084;16.748;2023-04-19T12:09:27;100592.45;;;8.06;69.46
72096;BME280;59968;51.084;16.748;2023-04-19T12:11:56;100587.16;;;8.00;70.26
72096;BME280;59968;51.084;16.748;2023-04-19T12:14:29;100586.25;;;7.97;70.13
72096;BME280;59968;51.084;16.748;2023-04-19T12:17:17;100590.30;;;7.87;70.65
72096;BME280;59968;51.084;16.748;2023-04-19T12:19:46;100584.73;;;7.79;70.57
72096;BME280;59968;51.084;16.748;2023-04-19T12:22:18;100577.33;;;7.73;70.90
72096;BME280;59968;51.084;16.748;2023-04-19T12:24:51;100585.64;;;7.77;71.01
72096;BME280;59968;51.084;16.748;2023-04-19T12:27:24;100585.31;;;7.77;71.39
72096;BME280;59968;51.084;16.748;2023-04-19T12:29:53;100582.58;;;7.78;71.30
72096;BME280;59968;51.084;16.748;2023-04-19T12:32:27;100583.37;;;7.79;71.42
72096;BME280;59968;51.084;16.748;2023-04-19T12:35:04;100582.20;;;7.72;71.57
72096;BME280;59968;51.084;16.748;2023-04-19T12:37:37;100581.49;;;7.68;71.69
72096;BME280;59968;51.084;16.748;2023-04-19T12:40:13;100580.43;;;7.63;71.86
72096;BME280;59968;51.084;16.748;2023-04-19T12:42:42;100580.15;;;7.58;72.02
72096;BME280;59968;51.084;16.748;2023-04-19T12:45:19;100576.46;;;7.55;72.16
72096;BME280;59968;51.084;16.748;2023-04-19T12:47:57;100575.36;;;7.52;72.40
72096;BME280;59968;51.084;16.748;2023-04-19T12:50:39;100578.69;;;7.51;72.70
72096;BME280;59968;51.084;16.748;2023-04-19T12:53:15;100583.27;;;7.46;72.77
72096;BME280;59968;51.084;16.748;2023-04-19T12:55:44;100582.60;;;7.41;72.54
72096;BME280;59968;51.084;16.748;2023-04-19T12:58:17;100579.97;;;7.36;72.18
72096;BME280;59968;51.084;16.748;2023-04-19T13:00:56;100581.98;;;7.28;71.97
72096;BME280;59968;51.084;16.748;2023-04-19T13:03:29;100574.10;;;7.23;72.11
72096;BME280;59968;51.084;16.748;2023-04-19T13:06:06;100573.92;;;7.24;72.20
72096;BME280;59968;51.084;16.748;2023-04-19T13:08:38;100570.26;;;7.28;71.94
72096;BME280;59968;51.084;16.748;2023-04-19T13:11:18;100573.79;;;7.30;71.27
72096;BME280;59968;51.084;16.748;2023-04-19T13:13:50;100573.31;;;7.35;71.15
72096;BME280;59968;51.084;16.748;2023-04-19T13:16:46;100573.27;;;7.42;71.12
72096;BME280;59968;51.084;16.748;2023-04-19T13:19:37;100574.19;;;7.43;70.81
72096;BME280;59968;51.084;16.748;2023-04-19T13:22:13;100570.99;;;7.39;70.86
72096;BME280;59968;51.084;16.748;2023-04-19T13:24:43;100574.14;;;7.39;70.77
72096;BME280;59968;51.084;16.748;2023-04-19T13:27:12;100570.15;;;7.40;71.30
72096;BME280;59968;51.084;16.748;2023-04-19T13:29:44;100568.46;;;7.45;71.37
72096;BME280;59968;51.084;16.748;2023-04-19T13:32:25;100568.44;;;7.47;71.19
72096;BME280;59968;51.084;16.748;2023-04-19T13:34:54;100565.89;;;7.46;71.18
72096;BME280;59968;51.084;16.748;2023-04-19T13:37:27;100565.35;;;7.44;71.15
72096;BME280;59968;51.084;16.748;2023-04-19T13:40:01;100567.48;;;7.40;70.92
72096;BME280;59968;51.084;16.748;2023-04-19T13:42:46;100571.90;;;7.37;71.05
72096;BME280;59968;51.084;16.748;2023-04-19T13:45:25;100569.55;;;7.38;70.88
72096;BME280;59968;51.084;16.748;2023-04-19T13:48:09;100572.35;;;7.41;71.07